Time;durP1;ratioP1;P1;durP2;ratioP2;P2;SDS_P1;SDS_P2;PMS_P1;PMS_P2;Temp;Humidity;BMP_temperature;BMP_pressure;BME280_temperature;BME280_humidity;BME280_pressure;Samples;Min_cycle;Max_cycle;Signal;HPM_P1;HPM_P2
2023/04/21 00:00:19;;;;;;;0.77;0.70;;;18.00;68.60;;;;;;5035414;28;20095;-76
2023/04/21 00:02:45;;;;;;;0.90;0.70;;;18.00;68.70;;;;;;5035159;28;20091;-75
2023/04/21 00:05:12;;;;;;;0.93;0.80;;;18.00;68.60;;;;;;5035213;28;20056;-76
2023/04/21 00:07:39;;;;;;;1.13;0.70;;;18.10;68.90;;;;;;5033826;28;20104;-75
2023/04/21 00:10:08;;;;;;;0.73;0.70;;;18.00;68.90;;;;;;5035262;28;20492;-75
2023/04/21 00:12:34;;;;;;;2.30;0.70;;;18.00;68.90;;;;;;5033722;28;20030;-75
2023/04/21 00:14:59;;;;;;;1.20;0.68;;;18.00;68.90;;;;;;5035230;28;20396;-76
2023/04/21 00:17:25;;;;;;;0.90;0.80;;;18.00;69.00;;;;;;5033411;28;20121;-75
2023/04/21 00:19:51;;;;;;;0.65;0.52;;;18.00;69.10;;;;;;5033708;28;20021;-75
2023/04/21 00:22:17;;;;;;;2.85;0.90;;;17.90;69.10;;;;;;5034942;28;20033;-75
2023/04/21 00:24:43;;;;;;;0.77;0.70;;;18.00;69.20;;;;;;5033609;28;20028;-75
2023/04/21 00:27:10;;;;;;;0.90;0.60;;;18.00;69.20;;;;;;5033600;28;20029;-75
2023/04/21 00:29:36;;;;;;;1.55;0.70;;;18.00;69.20;;;;;;5034883;28;20022;-75
2023/04/21 00:32:02;;;;;;;0.60;0.60;;;17.90;69.10;;;;;;5034715;28;20033;-75
2023/04/21 00:34:28;;;;;;;2.88;0.77;;;17.90;69.20;;;;;;5034800;28;20018;-75
2023/04/21 00:36:54;;;;;;;1.00;0.70;;;17.90;69.20;;;;;;5033720;28;20400;-75
2023/04/21 00:39:19;;;;;;;2.53;0.82;;;17.90;69.40;;;;;;5034508;28;20464;-75
2023/04/21 00:41:45;;;;;;;1.58;0.75;;;17.90;69.40;;;;;;5034642;28;20025;-76
2023/04/21 00:44:11;;;;;;;0.73;0.73;;;17.90;69.40;;;;;;5034468;28;20030;-75
2023/04/21 00:46:37;;;;;;;0.85;0.63;;;17.90;69.50;;;;;;5032433;28;20033;-76
2023/04/21 00:49:05;;;;;;;1.75;0.90;;;17.80;69.50;;;;;;5033300;28;20563;-74
2023/04/21 00:51:32;;;;;;;0.70;0.60;;;17.90;69.60;;;;;;5033096;28;20021;-75
2023/04/21 00:53:57;;;;;;;2.90;0.70;;;17.80;69.60;;;;;;5033046;28;20024;-75
2023/04/21 00:56:23;;;;;;;0.60;0.60;;;17.90;69.80;;;;;;5033262;28;20021;-75
2023/04/21 00:58:49;;;;;;;2.05;0.80;;;17.80;69.80;;;;;;5033071;28;20049;-75
2023/04/21 01:01:16;;;;;;;1.40;0.70;;;17.80;69.70;;;;;;5032701;28;20025;-75
2023/04/21 01:03:41;;;;;;;1.15;0.75;;;17.80;69.90;;;;;;5034280;28;20021;-75
2023/04/21 01:06:07;;;;;;;1.02;0.65;;;17.90;70.00;;;;;;5034054;28;20097;-75
2023/04/21 01:08:33;;;;;;;0.75;0.75;;;17.80;70.00;;;;;;5032594;28;20021;-75
2023/04/21 01:10:58;;;;;;;0.82;0.70;;;17.80;70.00;;;;;;5032755;28;20499;-75
2023/04/21 01:13:24;;;;;;;1.33;0.88;;;17.80;70.00;;;;;;5032594;28;20041;-75
2023/04/21 01:15:50;;;;;;;2.22;0.93;;;17.80;70.20;;;;;;5033606;28;20029;-75
2023/04/21 01:18:18;;;;;;;1.50;0.75;;;17.80;70.60;;;;;;5032514;28;20156;-75
2023/04/21 01:20:44;;;;;;;1.25;0.60;;;17.80;70.80;;;;;;5033733;28;20029;-75
2023/04/21 01:23:10;;;;;;;1.33;0.85;;;17.80;70.90;;;;;;5033665;28;20056;-76
2023/04/21 01:25:36;;;;;;;2.72;0.93;;;17.80;71.00;;;;;;5033883;28;20452;-75
2023/04/21 01:28:02;;;;;;;6.47;0.70;;;17.80;71.00;;;;;;5033467;28;20080;-75
2023/04/21 01:30:27;;;;;;;0.80;0.80;;;17.80;71.40;;;;;;5032166;28;20032;-75
2023/04/21 01:32:53;;;;;;;0.88;0.80;;;17.80;71.60;;;;;;5033814;28;20022;-75
2023/04/21 01:35:19;;;;;;;0.63;0.63;;;17.80;71.70;;;;;;5033489;28;20108;-76
2023/04/21 01:37:44;;;;;;;0.77;0.60;;;17.80;71.70;;;;;;5033471;28;20104;-75
2023/04/21 01:40:10;;;;;;;0.70;0.70;;;17.70;71.80;;;;;;5032244;28;20538;-76
2023/04/21 01:42:38;;;;;;;0.77;0.75;;;17.80;71.80;;;;;;5032000;28;20021;-75
2023/04/21 01:45:04;;;;;;;1.48;0.65;;;17.70;71.60;;;;;;5032037;28;20059;-75
2023/04/21 01:47:29;;;;;;;1.20;0.70;;;17.80;71.70;;;;;;5031921;28;20037;-76
2023/04/21 01:49:55;;;;;;;0.77;0.75;;;17.80;71.70;;;;;;5031987;28;20407;-75
2023/04/21 01:52:21;;;;;;;0.73;0.73;;;17.80;71.70;;;;;;5033391;28;20472;-76
2023/04/21 01:54:46;;;;;;;0.98;0.70;;;17.70;71.70;;;;;;5033125;28;20054;-74
2023/04/21 01:57:12;;;;;;;1.17;0.80;;;17.80;71.70;;;;;;5031260;28;20076;-74
2023/04/21 01:59:38;;;;;;;0.60;0.60;;;17.70;71.70;;;;;;5033089;28;20075;-74
2023/04/21 02:02:03;;;;;;;4.05;0.80;;;17.70;71.70;;;;;;5015544;28;20084;-74
2023/04/21 02:04:29;;;;;;;2.47;0.70;;;17.70;71.70;;;;;;5032974;28;20025;-74
2023/04/21 02:06:55;;;;;;;1.48;0.75;;;17.70;71.80;;;;;;5031733;28;20113;-74
2023/04/21 02:09:20;;;;;;;3.42;0.60;;;17.70;71.80;;;;;;5032853;28;20435;-75
2023/04/21 02:11:46;;;;;;;2.00;0.75;;;17.70;71.80;;;;;;5033053;28;20091;-75
2023/04/21 02:14:12;;;;;;;1.65;0.70;;;17.70;71.70;;;;;;5032845;28;20538;-75
2023/04/21 02:16:37;;;;;;;2.65;0.80;;;17.70;71.80;;;;;;5032899;28;20030;-75
2023/04/21 02:19:03;;;;;;;0.82;0.70;;;17.70;71.80;;;;;;5032990;28;20030;-74
2023/04/21 02:21:28;;;;;;;1.23;0.80;;;17.70;71.70;;;;;;5032682;28;20029;-75
2023/04/21 02:23:54;;;;;;;1.38;1.00;;;17.70;71.80;;;;;;5032802;28;20048;-75
2023/04/21 02:26:20;;;;;;;1.67;1.10;;;17.70;71.80;;;;;;5031851;28;20021;-75
2023/04/21 02:28:46;;;;;;;0.80;0.80;;;17.70;71.80;;;;;;5031150;28;20098;-75
2023/04/21 02:31:12;;;;;;;1.00;0.90;;;17.70;71.80;;;;;;5031608;28;20026;-75
2023/04/21 02:33:37;;;;;;;1.00;0.80;;;17.60;71.70;;;;;;5032816;28;20021;-75
2023/04/21 02:36:04;;;;;;;0.88;0.80;;;17.60;71.70;;;;;;5031416;28;20097;-75
2023/04/21 02:38:29;;;;;;;1.25;0.73;;;17.70;71.80;;;;;;5032681;28;20100;-75
2023/04/21 02:40:56;;;;;;;1.63;0.82;;;17.60;71.80;;;;;;5032848;28;20104;-75
2023/04/21 02:43:21;;;;;;;0.90;0.50;;;17.60;71.90;;;;;;5014932;28;20025;-76
2023/04/21 02:45:47;;;;;;;0.82;0.60;;;17.60;72.00;;;;;;5032651;28;20432;-75
2023/04/21 02:48:13;;;;;;;0.90;0.70;;;17.60;71.90;;;;;;5031413;28;20040;-75
2023/04/21 02:50:39;;;;;;;0.60;0.60;;;17.60;72.00;;;;;;5032539;28;20400;-75
2023/04/21 02:53:04;;;;;;;0.60;0.60;;;17.60;72.00;;;;;;5032662;28;20045;-74
2023/04/21 02:55:30;;;;;;;0.88;0.80;;;17.60;72.10;;;;;;5014775;28;20069;-75
2023/04/21 02:57:56;;;;;;;0.85;0.65;;;17.60;72.10;;;;;;5032207;28;20067;-75
2023/04/21 03:00:21;;;;;;;1.38;0.80;;;17.60;72.00;;;;;;5032639;28;20437;-73
2023/04/21 03:02:47;;;;;;;1.20;0.80;;;17.70;72.10;;;;;;5031322;28;20034;-75
2023/04/21 03:05:13;;;;;;;0.85;0.70;;;17.60;72.10;;;;;;5031192;28;20030;-75
2023/04/21 03:07:39;;;;;;;1.00;0.52;;;17.60;72.10;;;;;;5032108;28;20087;-75
2023/04/21 03:10:05;;;;;;;0.60;0.50;;;17.60;72.10;;;;;;5035561;28;20018;-75
2023/04/21 03:12:31;;;;;;;0.77;0.70;;;17.60;72.10;;;;;;5031142;28;20050;-75
2023/04/21 03:14:57;;;;;;;0.73;0.70;;;17.60;72.10;;;;;;5016452;28;20060;-75
2023/04/21 03:17:23;;;;;;;0.70;0.50;;;17.60;72.10;;;;;;5015071;28;20121;-75
2023/04/21 03:19:49;;;;;;;0.93;0.57;;;17.60;72.30;;;;;;5016343;28;20097;-75
2023/04/21 03:22:14;;;;;;;0.95;0.80;;;17.60;72.30;;;;;;5035429;28;20071;-75
2023/04/21 03:24:40;;;;;;;0.75;0.70;;;17.60;72.40;;;;;;5036026;28;20404;-75
2023/04/21 03:27:05;;;;;;;1.20;0.73;;;17.60;73.40;;;;;;5035881;28;20033;-75
2023/04/21 03:29:31;;;;;;;1.85;0.95;;;17.60;72.40;;;;;;5035744;28;20021;-75
2023/04/21 03:31:57;;;;;;;0.77;0.70;;;17.60;72.40;;;;;;5035904;28;20068;-75
2023/04/21 03:34:22;;;;;;;0.93;0.65;;;17.50;72.30;;;;;;5036047;28;20227;-75
2023/04/21 03:36:48;;;;;;;2.33;0.85;;;17.50;72.30;;;;;;5034478;28;20033;-75
2023/04/21 03:39:13;;;;;;;0.90;0.77;;;17.60;72.40;;;;;;5035957;28;20031;-76
2023/04/21 03:41:39;;;;;;;0.70;0.60;;;17.60;72.50;;;;;;5035080;28;20029;-75
2023/04/21 03:44:05;;;;;;;0.82;0.50;;;17.50;72.30;;;;;;5035790;28;20475;-75
2023/04/21 03:46:31;;;;;;;0.90;0.73;;;17.50;72.30;;;;;;5035619;28;20025;-76
2023/04/21 03:48:56;;;;;;;2.15;0.80;;;17.50;72.40;;;;;;5034282;28;20025;-75
2023/04/21 03:51:22;;;;;;;1.00;0.90;;;17.50;72.40;;;;;;5035704;28;20384;-75
2023/04/21 03:53:48;;;;;;;0.88;0.70;;;17.50;72.40;;;;;;5035415;28;20476;-75
2023/04/21 03:56:13;;;;;;;1.52;0.52;;;17.50;73.50;;;;;;5035379;28;20033;-74
2023/04/21 03:58:39;;;;;;;0.80;0.60;;;17.50;72.40;;;;;;5033880;28;20419;-75
2023/04/21 04:01:06;;;;;;;0.70;0.70;;;17.50;72.40;;;;;;5035505;28;20033;-75
2023/04/21 04:03:31;;;;;;;2.42;1.10;;;17.50;72.40;;;;;;5035367;28;20025;-75
2023/04/21 04:05:57;;;;;;;0.63;0.60;;;17.50;72.40;;;;;;5017673;28;20083;-75
2023/04/21 04:08:23;;;;;;;1.92;0.77;;;17.50;72.50;;;;;;5034058;28;20421;-75
2023/04/21 04:10:48;;;;;;;0.65;0.65;;;17.50;72.40;;;;;;5035050;28;20388;-75
2023/04/21 04:13:14;;;;;;;0.70;0.70;;;17.50;72.40;;;;;;5017378;28;20053;-75
2023/04/21 04:15:40;;;;;;;1.33;0.68;;;17.50;72.40;;;;;;5035156;28;20029;-76
2023/04/21 04:18:05;;;;;;;1.50;0.70;;;17.50;72.50;;;;;;5035036;28;20029;-75
2023/04/21 04:20:31;;;;;;;0.70;0.70;;;17.50;72.50;;;;;;5033997;28;20472;-75
2023/04/21 04:22:57;;;;;;;0.50;0.50;;;17.50;72.40;;;;;;5033726;28;20025;-75
2023/04/21 04:25:22;;;;;;;1.30;0.88;;;17.50;72.40;;;;;;5034646;28;20037;-75
2023/04/21 04:27:49;;;;;;;0.70;0.70;;;17.50;72.40;;;;;;5034540;28;20049;-75
2023/04/21 04:30:14;;;;;;;1.73;0.80;;;17.50;72.40;;;;;;5034964;28;20022;-75
2023/04/21 04:32:40;;;;;;;0.70;0.60;;;17.50;72.50;;;;;;5017013;28;20020;-75
2023/04/21 04:35:06;;;;;;;1.00;0.60;;;17.50;72.50;;;;;;5034808;28;20170;-75
2023/04/21 04:37:35;;;;;;;0.77;0.77;;;17.40;72.50;;;;;;5017027;28;20024;-74
2023/04/21 04:40:01;;;;;;;0.80;0.80;;;17.50;72.50;;;;;;5033275;28;20030;-75
2023/04/21 04:42:27;;;;;;;1.35;0.73;;;17.40;72.50;;;;;;5016847;28;20017;-75
2023/04/21 04:44:53;;;;;;;1.10;0.57;;;17.40;72.50;;;;;;5034667;28;20054;-74
2023/04/21 04:47:19;;;;;;;0.60;0.60;;;17.40;72.50;;;;;;5034447;28;20025;-74
2023/04/21 04:49:44;;;;;;;0.70;0.70;;;17.50;72.50;;;;;;5033091;28;20464;-75
2023/04/21 04:52:10;;;;;;;1.08;0.60;;;17.40;72.60;;;;;;5034503;28;20022;-75
2023/04/21 04:54:36;;;;;;;1.05;0.68;;;17.40;72.50;;;;;;5032726;28;20057;-75
2023/04/21 04:57:02;;;;;;;1.00;0.50;;;17.40;72.60;;;;;;5034157;28;20032;-75
2023/04/21 04:59:27;;;;;;;1.23;0.70;;;17.40;72.60;;;;;;5034366;28;20033;-74
2023/04/21 05:01:53;;;;;;;0.88;0.88;;;17.50;72.70;;;;;;5034240;28;20107;-74
2023/04/21 05:04:19;;;;;;;0.77;0.70;;;17.40;73.70;;;;;;5034455;28;20052;-74
2023/04/21 05:06:45;;;;;;;0.90;0.60;;;17.40;72.70;;;;;;5032476;28;20155;-74
2023/04/21 05:09:11;;;;;;;0.60;0.60;;;17.40;72.70;;;;;;5033948;28;20025;-75
2023/04/21 05:11:36;;;;;;;0.60;0.60;;;17.50;72.70;;;;;;5033891;28;20029;-75
2023/04/21 05:14:02;;;;;;;1.30;0.70;;;17.40;72.80;;;;;;5032649;28;20029;-75
2023/04/21 05:16:28;;;;;;;0.60;0.60;;;17.40;72.90;;;;;;5032516;28;20561;-75
2023/04/21 05:18:53;;;;;;;0.60;0.57;;;17.40;72.80;;;;;;5033952;28;20034;-75
2023/04/21 05:21:28;;;;;;;1.33;0.82;;;17.40;72.80;;;;;;5033587;28;20049;-75
2023/04/21 05:23:57;;;;;;;1.27;0.60;;;17.40;73.00;;;;;;5032371;28;20037;-74
2023/04/21 05:26:24;;;;;;;1.02;0.80;;;17.40;72.80;;;;;;5032399;28;20021;-74
2023/04/21 05:28:50;;;;;;;2.28;0.70;;;17.40;72.90;;;;;;5032056;28;20025;-74
2023/04/21 05:31:15;;;;;;;1.05;0.70;;;17.40;73.00;;;;;;5033520;28;20018;-75
2023/04/21 05:33:41;;;;;;;2.88;0.80;;;17.40;73.00;;;;;;5033359;28;20072;-75
2023/04/21 05:36:08;;;;;;;0.60;0.57;;;17.40;73.00;;;;;;5032081;28;20057;-75
2023/04/21 05:38:34;;;;;;;1.00;0.90;;;17.40;73.00;;;;;;5032130;28;20144;-74
2023/04/21 05:41:00;;;;;;;1.23;0.57;;;17.40;73.10;;;;;;5031902;28;20033;-74
2023/04/21 05:43:25;;;;;;;1.13;0.85;;;17.40;73.10;;;;;;5033205;28;20128;-74
2023/04/21 05:45:51;;;;;;;1.23;0.70;;;17.40;73.10;;;;;;5033176;28;20087;-75
2023/04/21 05:48:16;;;;;;;0.47;0.40;;;17.40;73.20;;;;;;5033272;28;20033;-74
2023/04/21 05:50:42;;;;;;;1.10;0.60;;;17.40;73.20;;;;;;5031761;28;20017;-75
2023/04/21 05:53:08;;;;;;;0.95;0.85;;;17.40;73.20;;;;;;5033178;28;20172;-74
2023/04/21 05:55:34;;;;;;;1.83;0.90;;;17.40;73.10;;;;;;5031749;28;20042;-75
2023/04/21 05:58:00;;;;;;;0.82;0.80;;;17.40;73.20;;;;;;5031673;28;20427;-74
2023/04/21 06:00:25;;;;;;;1.67;0.70;;;17.40;73.20;;;;;;5033253;28;20017;-74
2023/04/21 06:02:51;;;;;;;0.75;0.75;;;17.40;73.20;;;;;;5032856;28;20495;-74
2023/04/21 06:05:17;;;;;;;0.82;0.82;;;17.40;73.20;;;;;;5032760;28;20148;-75
2023/04/21 06:07:42;;;;;;;0.93;0.75;;;17.40;73.20;;;;;;5031860;28;20030;-75
2023/04/21 06:10:10;;;;;;;0.77;0.65;;;17.40;73.20;;;;;;5032886;28;20025;-74
2023/04/21 06:12:35;;;;;;;5.35;0.80;;;17.40;73.20;;;;;;5032903;28;20488;-74
2023/04/21 06:15:01;;;;;;;1.60;0.95;;;17.40;73.30;;;;;;5032955;28;20033;-74
2023/04/21 06:17:27;;;;;;;1.27;0.90;;;17.40;73.00;;;;;;5032792;28;20061;-75
2023/04/21 06:19:54;;;;;;;0.70;0.60;;;17.30;72.80;;;;;;5031442;28;20086;-75
2023/04/21 06:22:21;;;;;;;1.15;0.80;;;17.40;72.70;;;;;;5013260;28;20542;-74
2023/04/21 06:24:46;;;;;;;1.90;0.70;;;17.40;72.70;;;;;;5011801;28;20021;-74
2023/04/21 06:27:12;;;;;;;1.55;0.90;;;17.40;72.60;;;;;;5011786;28;20500;-75
2023/04/21 06:29:38;;;;;;;1.92;0.77;;;17.30;72.30;;;;;;5011918;28;20520;-75
2023/04/21 06:32:04;;;;;;;0.75;0.70;;;17.30;72.00;;;;;;5012853;28;20080;-75
2023/04/21 06:34:29;;;;;;;0.65;0.65;;;17.30;71.80;;;;;;5012789;28;20053;-75
2023/04/21 06:36:55;;;;;;;0.95;0.80;;;17.30;71.70;;;;;;5012931;28;20032;-75
2023/04/21 06:39:21;;;;;;;1.92;0.80;;;17.30;71.50;;;;;;5012969;28;20026;-75
2023/04/21 06:41:46;;;;;;;1.33;0.80;;;17.30;71.40;;;;;;5011600;28;20033;-74
2023/04/21 06:44:12;;;;;;;1.45;0.98;;;17.30;71.10;;;;;;5014694;28;20033;-75
2023/04/21 06:46:41;;;;;;;1.80;1.05;;;17.30;70.90;;;;;;5015886;28;20050;-74
2023/04/21 06:49:07;;;;;;;11.02;2.40;;;17.30;70.80;;;;;;5016520;28;20029;-75
2023/04/21 06:51:33;;;;;;;6.65;1.50;;;17.30;71.30;;;;;;5016591;28;20018;-74
2023/04/21 06:53:59;;;;;;;6.82;1.73;;;17.30;71.40;;;;;;5015950;28;20022;-74
2023/04/21 06:56:28;;;;;;;4.53;1.23;;;17.30;71.60;;;;;;4998664;28;20385;-74
2023/04/21 06:58:54;;;;;;;7.18;1.80;;;17.30;71.60;;;;;;5013771;28;20534;-75
2023/04/21 07:01:20;;;;;;;4.90;1.52;;;17.30;71.70;;;;;;5014903;28;20034;-74
2023/04/21 07:03:46;;;;;;;2.40;1.40;;;17.20;71.60;;;;;;5019889;28;20025;-74
2023/04/21 07:06:11;;;;;;;2.53;1.50;;;17.30;71.60;;;;;;5035552;28;20026;-74
2023/04/21 07:08:37;;;;;;;3.60;1.67;;;17.20;71.60;;;;;;5035495;28;20026;-74
2023/04/21 07:11:03;;;;;;;3.60;1.48;;;17.20;71.50;;;;;;5033158;28;20025;-75
2023/04/21 07:13:29;;;;;;;1.98;1.27;;;17.30;71.40;;;;;;5035476;28;20101;-74
2023/04/21 07:15:54;;;;;;;2.63;1.50;;;17.30;71.40;;;;;;5035390;28;20017;-74
2023/04/21 07:18:20;;;;;;;3.78;1.48;;;17.30;71.40;;;;;;5034219;28;20022;-74
2023/04/21 07:20:46;;;;;;;2.78;1.60;;;17.20;71.20;;;;;;5035330;28;20029;-74
2023/04/21 07:23:11;;;;;;;3.70;1.75;;;17.30;71.20;;;;;;5035486;28;20071;-74
2023/04/21 07:25:37;;;;;;;3.67;1.35;;;17.20;71.00;;;;;;5017903;28;20103;-74
2023/04/21 07:28:03;;;;;;;2.30;1.40;;;17.20;71.00;;;;;;5035039;28;20104;-74
2023/04/21 07:30:29;;;;;;;2.10;1.40;;;17.20;71.00;;;;;;5035099;28;20113;-74
2023/04/21 07:32:55;;;;;;;2.97;1.63;;;17.20;71.00;;;;;;5017519;28;20096;-74
2023/04/21 07:35:21;;;;;;;3.35;1.63;;;17.20;71.00;;;;;;5033988;28;20025;-74
2023/04/21 07:37:46;;;;;;;2.28;1.80;;;17.20;71.00;;;;;;5035090;28;20072;-74
2023/04/21 07:40:12;;;;;;;2.75;1.52;;;17.20;70.90;;;;;;5034961;28;20401;-74
2023/04/21 07:42:38;;;;;;;5.25;1.50;;;17.20;70.90;;;;;;5033979;28;20036;-74
2023/04/21 07:45:04;;;;;;;2.10;1.80;;;17.20;70.90;;;;;;5033810;28;20029;-74
2023/04/21 07:47:30;;;;;;;2.42;1.80;;;17.20;70.90;;;;;;5034788;28;20047;-74
2023/04/21 07:49:55;;;;;;;2.95;1.58;;;17.10;70.90;;;;;;5034956;28;20079;-74
2023/04/21 07:52:21;;;;;;;2.03;1.35;;;17.10;71.00;;;;;;5033819;28;20022;-74
2023/04/21 07:54:47;;;;;;;2.75;1.98;;;17.20;71.00;;;;;;5032614;28;20068;-74
2023/04/21 07:57:12;;;;;;;4.60;1.80;;;17.20;71.00;;;;;;5033206;28;20107;-74
2023/04/21 07:59:38;;;;;;;4.78;2.03;;;17.10;71.00;;;;;;5034945;28;20163;-74
2023/04/21 08:02:04;;;;;;;2.47;1.95;;;17.20;71.00;;;;;;5034576;28;20384;-74
2023/04/21 08:04:30;;;;;;;3.85;2.03;;;17.10;71.10;;;;;;5034516;28;20025;-74
2023/04/21 08:06:55;;;;;;;3.08;1.90;;;17.20;71.10;;;;;;5033169;28;20036;-74
2023/04/21 08:09:21;;;;;;;3.08;1.80;;;17.10;71.10;;;;;;5033446;28;20561;-74
2023/04/21 08:11:47;;;;;;;2.38;1.83;;;17.10;71.10;;;;;;5034508;28;20494;-74
2023/04/21 08:14:12;;;;;;;1.98;1.73;;;17.20;71.20;;;;;;5034623;28;20100;-74
2023/04/21 08:16:40;;;;;;;2.95;1.98;;;17.10;71.10;;;;;;5034267;28;20124;-74
2023/04/21 08:19:06;;;;;;;2.65;2.13;;;17.10;71.20;;;;;;5033129;28;20109;-74
2023/04/21 08:21:32;;;;;;;2.33;1.70;;;17.10;71.20;;;;;;5016864;28;20096;-74
2023/04/21 08:23:58;;;;;;;2.42;1.50;;;17.10;71.20;;;;;;5034216;28;20491;-74
2023/04/21 08:26:24;;;;;;;1.67;1.58;;;17.10;71.20;;;;;;5033041;28;20043;-74
2023/04/21 08:28:51;;;;;;;1.88;1.77;;;17.10;71.30;;;;;;5033097;28;20392;-74
2023/04/21 08:31:17;;;;;;;3.22;1.80;;;17.10;71.20;;;;;;5033769;28;20021;-74
2023/04/21 08:33:43;;;;;;;1.98;1.70;;;17.10;71.20;;;;;;5033004;28;20391;-74
2023/04/21 08:36:10;;;;;;;1.65;1.55;;;17.10;71.30;;;;;;5034112;28;20101;-74
2023/04/21 08:38:36;;;;;;;2.90;1.88;;;17.10;71.30;;;;;;5034216;28;20120;-74
2023/04/21 08:41:02;;;;;;;3.35;1.63;;;17.10;71.30;;;;;;5016328;28;20488;-74
2023/04/21 08:43:28;;;;;;;1.67;1.58;;;17.10;71.40;;;;;;5032625;28;20086;-74
2023/04/21 08:45:53;;;;;;;2.60;1.85;;;17.10;71.30;;;;;;5032581;28;20021;-74
2023/04/21 08:48:20;;;;;;;1.50;1.40;;;17.10;71.30;;;;;;5016130;28;20021;-74
2023/04/21 08:50:47;;;;;;;1.80;1.65;;;17.10;71.30;;;;;;5032661;28;20400;-74
2023/04/21 08:53:13;;;;;;;2.35;1.75;;;17.10;71.40;;;;;;5032612;28;20018;-74
2023/04/21 08:55:39;;;;;;;2.00;1.60;;;17.10;71.40;;;;;;5032225;28;20539;-74
2023/04/21 08:58:05;;;;;;;3.17;1.83;;;17.10;71.30;;;;;;5015998;28;20526;-74
2023/04/21 09:00:31;;;;;;;2.50;1.70;;;17.10;71.30;;;;;;5033496;28;20087;-75
2023/04/21 09:03:00;;;;;;;2.58;1.80;;;17.10;71.40;;;;;;5033582;28;20017;-74
2023/04/21 09:05:27;;;;;;;1.70;1.42;;;17.10;71.40;;;;;;5033233;28;20037;-74
2023/04/21 09:08:06;;;;;;;2.65;1.80;;;17.10;71.40;;;;;;5033044;28;20025;-74
2023/04/21 09:10:32;;;;;;;1.50;1.40;;;17.10;71.40;;;;;;5032329;28;20496;-74
2023/04/21 09:12:58;;;;;;;2.28;1.80;;;17.10;72.40;;;;;;5033186;28;20029;-74
2023/04/21 09:15:24;;;;;;;1.83;1.67;;;17.10;71.30;;;;;;5033163;28;20021;-74
2023/04/21 09:17:54;;;;;;;3.65;2.08;;;17.10;71.40;;;;;;5033339;28;20389;-74
2023/04/21 09:20:20;;;;;;;3.92;1.90;;;17.10;71.30;;;;;;5031801;28;20442;-74
2023/04/21 09:22:50;;;;;;;2.75;1.70;;;17.10;71.40;;;;;;5032010;28;20499;-74
2023/04/21 09:25:16;;;;;;;2.70;1.80;;;17.10;71.30;;;;;;5031884;28;20025;-74
2023/04/21 09:27:42;;;;;;;1.83;1.70;;;17.10;71.30;;;;;;5032092;28;20017;-74
2023/04/21 09:30:08;;;;;;;2.10;1.83;;;17.10;71.30;;;;;;5032568;28;20095;-74
2023/04/21 09:32:40;;;;;;;1.65;1.55;;;17.10;71.20;;;;;;5033186;28;20017;-74
2023/04/21 09:35:11;;;;;;;1.75;1.65;;;17.10;71.30;;;;;;5015703;28;20037;-74
2023/04/21 09:37:38;;;;;;;2.10;1.90;;;17.10;71.30;;;;;;5031974;28;20094;-74
2023/04/21 09:40:04;;;;;;;2.17;1.73;;;17.10;71.30;;;;;;5031587;28;20026;-74
2023/04/21 09:42:31;;;;;;;2.33;2.05;;;17.10;71.30;;;;;;5031482;28;20491;-74
2023/04/21 09:44:57;;;;;;;1.92;1.67;;;17.10;71.30;;;;;;5031670;28;20037;-74
2023/04/21 09:47:22;;;;;;;1.60;1.50;;;17.10;71.30;;;;;;5031445;28;20026;-74
2023/04/21 09:49:51;;;;;;;2.03;1.55;;;17.10;71.30;;;;;;5031658;28;20024;-74
2023/04/21 09:52:18;;;;;;;2.05;1.80;;;17.10;71.20;;;;;;5032620;28;20017;-74
2023/04/21 09:54:50;;;;;;;2.38;1.50;;;17.10;71.30;;;;;;5031335;28;20057;-74
2023/04/21 09:57:23;;;;;;;3.83;1.65;;;17.10;71.30;;;;;;5015213;28;20029;-74
2023/04/21 09:59:54;;;;;;;2.28;1.80;;;17.10;71.20;;;;;;5015686;28;20030;-74
2023/04/21 10:02:20;;;;;;;1.75;1.60;;;17.10;71.20;;;;;;5015597;28;20040;-74
2023/04/21 10:04:46;;;;;;;1.98;1.73;;;17.10;71.20;;;;;;5014834;28;20033;-74
2023/04/21 10:07:11;;;;;;;1.88;1.77;;;17.10;71.20;;;;;;5032133;28;20052;-74
2023/04/21 10:09:55;;;;;;;1.52;1.42;;;17.10;71.20;;;;;;5032766;28;20494;-74
2023/04/21 10:12:22;;;;;;;2.50;1.90;;;17.10;71.20;;;;;;5030826;28;20022;-74
2023/04/21 10:14:52;;;;;;;2.42;1.70;;;17.10;71.20;;;;;;5014914;28;20104;-74
2023/04/21 10:17:18;;;;;;;3.10;1.60;;;17.10;71.20;;;;;;5015022;28;20021;-74
2023/04/21 10:19:51;;;;;;;1.60;1.50;;;17.00;71.20;;;;;;5030676;28;20381;-74
2023/04/21 10:22:30;;;;;;;1.95;1.85;;;17.10;71.10;;;;;;5014550;28;20049;-74
2023/04/21 10:24:56;;;;;;;1.73;1.63;;;17.00;71.10;;;;;;5015491;28;20031;-74
2023/04/21 10:27:40;;;;;;;1.95;1.52;;;17.10;72.20;;;;;;5030707;28;20052;-74
2023/04/21 10:30:18;;;;;;;1.73;1.63;;;17.10;71.20;;;;;;5030897;28;20030;-74
2023/04/21 10:32:45;;;;;;;2.10;1.90;;;17.10;71.20;;;;;;5032340;28;20026;-74
2023/04/21 10:35:12;;;;;;;1.50;1.40;;;17.10;71.10;;;;;;5030760;28;20099;-74
2023/04/21 10:37:40;;;;;;;2.20;1.80;;;17.10;71.20;;;;;;5031086;28;20068;-74
2023/04/21 10:40:09;;;;;;;5.10;2.05;;;17.00;71.00;;;;;;5031000;28;20018;-74
2023/04/21 10:42:35;;;;;;;1.80;1.65;;;17.10;71.20;;;;;;5031770;28;20415;-74
2023/04/21 10:45:07;;;;;;;1.60;1.50;;;17.10;71.10;;;;;;5014827;28;20047;-74
2023/04/21 10:47:50;;;;;;;1.70;1.60;;;17.10;71.10;;;;;;5030843;28;20031;-74
2023/04/21 10:50:17;;;;;;;3.78;1.77;;;17.00;71.10;;;;;;5031814;28;20025;-74
2023/04/21 10:52:54;;;;;;;2.10;1.88;;;17.10;71.10;;;;;;5031001;28;20029;-74
2023/04/21 10:55:20;;;;;;;2.50;1.50;;;17.00;71.10;;;;;;5030335;28;20041;-74
2023/04/21 10:57:46;;;;;;;1.73;1.63;;;17.00;71.10;;;;;;5014575;28;20043;-74
2023/04/21 11:00:19;;;;;;;2.22;1.58;;;17.00;71.10;;;;;;5031870;28;20496;-74
2023/04/21 11:02:54;;;;;;;1.75;1.50;;;17.00;71.00;;;;;;5030700;28;20534;-74
2023/04/21 11:05:28;;;;;;;1.52;1.42;;;17.00;71.00;;;;;;5031484;28;20034;-74
2023/04/21 11:08:11;;;;;;;2.00;1.80;;;17.00;71.00;;;;;;5030793;28;20083;-74
2023/04/21 11:11:03;;;;;;;1.25;1.25;;;17.00;71.00;;;;;;5031915;28;20415;-74
2023/04/21 11:13:32;;;;;;;1.83;1.50;;;17.00;71.00;;;;;;5032137;28;20037;-74
2023/04/21 11:16:05;;;;;;;1.50;1.40;;;17.00;71.00;;;;;;5031814;28;20044;-74
2023/04/21 11:18:38;;;;;;;1.80;1.65;;;17.00;71.00;;;;;;5030342;28;20025;-74
2023/04/21 11:21:12;;;;;;;1.70;1.60;;;17.00;71.00;;;;;;5014645;28;20075;-74
2023/04/21 11:23:46;;;;;;;1.50;1.40;;;17.00;71.00;;;;;;5030686;28;20079;-74
2023/04/21 11:26:12;;;;;;;1.88;1.63;;;17.00;71.00;;;;;;5031654;28;20080;-74
2023/04/21 11:28:39;;;;;;;1.92;1.77;;;17.00;71.00;;;;;;5031646;28;20096;-74
2023/04/21 11:31:05;;;;;;;2.08;1.60;;;17.00;71.00;;;;;;5033652;28;20690;-74
2023/04/21 11:33:35;;;;;;;1.50;1.40;;;17.00;72.00;;;;;;5033890;28;20017;-74
2023/04/21 11:36:06;;;;;;;2.05;1.88;;;17.00;71.00;;;;;;5035285;28;20021;-74
2023/04/21 11:38:41;;;;;;;1.73;1.63;;;17.00;71.10;;;;;;5033714;28;20026;-74
2023/04/21 11:41:08;;;;;;;1.50;1.40;;;17.00;71.00;;;;;;5034034;28;20033;-74
2023/04/21 11:43:33;;;;;;;1.77;1.50;;;17.00;71.00;;;;;;5017812;28;20021;-74
2023/04/21 11:46:25;;;;;;;1.70;1.60;;;17.00;72.00;;;;;;5033895;28;20032;-74
2023/04/21 11:49:01;;;;;;;1.77;1.40;;;17.00;71.00;;;;;;5033775;28;20031;-74
2023/04/21 11:51:31;;;;;;;1.67;1.38;;;17.00;71.00;;;;;;5033738;28;20029;-74
2023/04/21 11:53:57;;;;;;;1.50;1.40;;;17.00;71.00;;;;;;5017645;28;20383;-74
2023/04/21 11:56:23;;;;;;;1.50;1.40;;;17.00;72.00;;;;;;5033506;28;20032;-74
2023/04/21 11:58:50;;;;;;;1.75;1.65;;;17.00;71.00;;;;;;5033846;28;20029;-74
2023/04/21 12:01:16;;;;;;;1.33;1.23;;;17.00;71.00;;;;;;5034551;28;20026;-74
2023/04/21 12:03:48;;;;;;;1.30;1.20;;;17.00;71.00;;;;;;5034563;28;20021;-74
2023/04/21 12:06:19;;;;;;;;;;;17.00;71.00;;;;;;5033936;28;20450;-74
2023/04/21 12:08:44;;;;;;;1.65;1.55;;;17.00;71.00;;;;;;5034331;28;19912;-74
2023/04/21 12:11:10;;;;;;;1.40;1.30;;;17.00;71.10;;;;;;5034680;28;20029;-74
2023/04/21 12:13:38;;;;;;;1.52;1.35;;;17.00;71.00;;;;;;5034461;28;20372;-74
2023/04/21 12:16:05;;;;;;;1.52;1.35;;;17.00;71.00;;;;;;5017388;28;20014;-74
2023/04/21 12:18:31;;;;;;;1.70;1.60;;;17.00;71.00;;;;;;5034292;28;20025;-74
2023/04/21 12:20:56;;;;;;;1.50;1.30;;;17.00;71.00;;;;;;5033280;28;20029;-74
2023/04/21 12:23:22;;;;;;;1.67;1.58;;;17.00;71.00;;;;;;5016429;28;20037;-74
2023/04/21 12:25:48;;;;;;;1.25;1.15;;;17.00;71.00;;;;;;5033213;28;20025;-74
2023/04/21 12:28:15;;;;;;;1.38;1.30;;;17.00;71.00;;;;;;5034110;28;20427;-74
2023/04/21 12:30:41;;;;;;;1.55;1.45;;;17.00;71.10;;;;;;5016741;28;20083;-74
2023/04/21 12:33:07;;;;;;;1.52;1.42;;;17.00;71.00;;;;;;5033008;28;20029;-74
2023/04/21 12:35:33;;;;;;;2.28;1.30;;;17.00;71.00;;;;;;5034087;28;20029;-74
2023/04/21 12:37:58;;;;;;;1.65;1.23;;;17.00;71.10;;;;;;5034029;28;20022;-74
2023/04/21 12:40:24;;;;;;;1.33;1.25;;;17.00;71.00;;;;;;5034221;28;20049;-74
2023/04/21 12:42:50;;;;;;;1.40;1.30;;;17.00;71.00;;;;;;5033070;28;20036;-74
2023/04/21 12:45:15;;;;;;;1.27;1.20;;;17.00;71.10;;;;;;5033851;28;20036;-74